sensor_id;sensor_type;location;lat;lon;timestamp;temperature;humidity
52787;DHT22;38661;53.152;5.846;2023-07-29T00:01:40;18.60;90.20
52787;DHT22;38661;53.152;5.846;2023-07-29T00:04:07;18.60;90.10
52787;DHT22;38661;53.152;5.846;2023-07-29T00:06:34;18.60;90.20
52787;DHT22;38661;53.152;5.846;2023-07-29T00:09:01;18.50;90.50
52787;DHT22;38661;53.152;5.846;2023-07-29T00:11:26;18.60;90.30
52787;DHT22;38661;53.152;5.846;2023-07-29T00:13:52;18.50;90.40
52787;DHT22;38661;53.152;5.846;2023-07-29T00:16:18;18.50;90.80
52787;DHT22;38661;53.152;5.846;2023-07-29T00:18:48;18.50;90.80
52787;DHT22;38661;53.152;5.846;2023-07-29T00:21:13;18.50;90.70
52787;DHT22;38661;53.152;5.846;2023-07-29T00:23:39;18.50;90.80
52787;DHT22;38661;53.152;5.846;2023-07-29T00:26:05;18.50;91.00
52787;DHT22;38661;53.152;5.846;2023-07-29T00:28:31;18.50;90.80
52787;DHT22;38661;53.152;5.846;2023-07-29T00:30:57;18.40;90.80
52787;DHT22;38661;53.152;5.846;2023-07-29T00:33:22;18.50;90.80
52787;DHT22;38661;53.152;5.846;2023-07-29T00:35:48;18.50;90.80
52787;DHT22;38661;53.152;5.846;2023-07-29T00:38:14;18.50;90.70
52787;DHT22;38661;53.152;5.846;2023-07-29T00:40:39;18.50;90.90
52787;DHT22;38661;53.152;5.846;2023-07-29T00:43:05;18.50;91.00
52787;DHT22;38661;53.152;5.846;2023-07-29T00:45:32;18.50;91.20
52787;DHT22;38661;53.152;5.846;2023-07-29T00:47:59;18.50;91.30
52787;DHT22;38661;53.152;5.846;2023-07-29T00:50:25;18.50;91.10
52787;DHT22;38661;53.152;5.846;2023-07-29T00:52:54;18.50;91.30
52787;DHT22;38661;53.152;5.846;2023-07-29T00:55:20;18.40;91.70
52787;DHT22;38661;53.152;5.846;2023-07-29T00:57:46;18.40;91.70
52787;DHT22;38661;53.152;5.846;2023-07-29T01:00:14;18.40;91.50
52787;DHT22;38661;53.152;5.846;2023-07-29T01:02:42;18.40;91.40
52787;DHT22;38661;53.152;5.846;2023-07-29T01:05:08;18.40;91.70
52787;DHT22;38661;53.152;5.846;2023-07-29T01:07:43;18.30;92.20
52787;DHT22;38661;53.152;5.846;2023-07-29T01:12:48;18.30;92.40
52787;DHT22;38661;53.152;5.846;2023-07-29T01:15:40;18.30;92.50
52787;DHT22;38661;53.152;5.846;2023-07-29T01:18:12;18.30;92.10
52787;DHT22;38661;53.152;5.846;2023-07-29T01:20:40;18.30;92.40
52787;DHT22;38661;53.152;5.846;2023-07-29T01:23:08;18.20;92.40
52787;DHT22;38661;53.152;5.846;2023-07-29T01:25:33;18.20;92.70
52787;DHT22;38661;53.152;5.846;2023-07-29T01:27:59;18.20;92.40
52787;DHT22;38661;53.152;5.846;2023-07-29T01:30:30;18.30;92.30
52787;DHT22;38661;53.152;5.846;2023-07-29T01:33:11;18.30;92.60
52787;DHT22;38661;53.152;5.846;2023-07-29T01:35:45;18.30;92.70
52787;DHT22;38661;53.152;5.846;2023-07-29T01:38:18;18.20;92.80
52787;DHT22;38661;53.152;5.846;2023-07-29T01:40:45;18.20;92.70
52787;DHT22;38661;53.152;5.846;2023-07-29T01:43:12;18.20;92.80
52787;DHT22;38661;53.152;5.846;2023-07-29T01:45:38;18.20;92.60
52787;DHT22;38661;53.152;5.846;2023-07-29T01:48:05;18.20;92.90
52787;DHT22;38661;53.152;5.846;2023-07-29T01:50:31;18.20;92.60
52787;DHT22;38661;53.152;5.846;2023-07-29T01:53:00;18.20;92.30
52787;DHT22;38661;53.152;5.846;2023-07-29T01:55:26;18.20;92.60
52787;DHT22;38661;53.152;5.846;2023-07-29T01:57:52;18.20;92.20
52787;DHT22;38661;53.152;5.846;2023-07-29T02:00:21;18.20;92.20
52787;DHT22;38661;53.152;5.846;2023-07-29T02:02:47;18.10;92.40
52787;DHT22;38661;53.152;5.846;2023-07-29T02:05:12;18.10;92.60
52787;DHT22;38661;53.152;5.846;2023-07-29T02:07:38;18.10;92.50
52787;DHT22;38661;53.152;5.846;2023-07-29T02:10:04;18.10;92.70
52787;DHT22;38661;53.152;5.846;2023-07-29T02:12:30;18.10;92.90
52787;DHT22;38661;53.152;5.846;2023-07-29T02:14:55;18.00;93.30
52787;DHT22;38661;53.152;5.846;2023-07-29T02:17:21;18.00;92.80
52787;DHT22;38661;53.152;5.846;2023-07-29T02:19:47;18.00;93.20
52787;DHT22;38661;53.152;5.846;2023-07-29T02:22:17;18.00;92.90
52787;DHT22;38661;53.152;5.846;2023-07-29T02:24:43;18.00;92.90
52787;DHT22;38661;53.152;5.846;2023-07-29T02:27:09;18.00;93.30
52787;DHT22;38661;53.152;5.846;2023-07-29T02:29:34;18.00;93.20
52787;DHT22;38661;53.152;5.846;2023-07-29T02:32:00;17.90;93.10
52787;DHT22;38661;53.152;5.846;2023-07-29T02:34:26;17.90;93.50
52787;DHT22;38661;53.152;5.846;2023-07-29T02:36:52;17.90;93.30
52787;DHT22;38661;53.152;5.846;2023-07-29T02:39:17;17.90;93.30
52787;DHT22;38661;53.152;5.846;2023-07-29T02:41:43;17.90;93.30
52787;DHT22;38661;53.152;5.846;2023-07-29T02:44:09;17.80;93.20
52787;DHT22;38661;53.152;5.846;2023-07-29T02:46:34;17.80;93.20
52787;DHT22;38661;53.152;5.846;2023-07-29T02:49:02;17.80;93.10
52787;DHT22;38661;53.152;5.846;2023-07-29T02:51:28;17.70;93.00
52787;DHT22;38661;53.152;5.846;2023-07-29T02:53:54;17.70;93.00
52787;DHT22;38661;53.152;5.846;2023-07-29T02:56:19;17.70;92.90
52787;DHT22;38661;53.152;5.846;2023-07-29T02:58:45;17.60;92.90
52787;DHT22;38661;53.152;5.846;2023-07-29T03:01:11;17.60;92.80
52787;DHT22;38661;53.152;5.846;2023-07-29T03:03:37;17.60;92.80
52787;DHT22;38661;53.152;5.846;2023-07-29T03:06:07;17.50;92.80
52787;DHT22;38661;53.152;5.846;2023-07-29T03:08:34;17.50;92.90
52787;DHT22;38661;53.152;5.846;2023-07-29T03:11:06;17.50;93.00
52787;DHT22;38661;53.152;5.846;2023-07-29T03:13:32;17.50;92.90
52787;DHT22;38661;53.152;5.846;2023-07-29T03:16:15;17.40;92.90
52787;DHT22;38661;53.152;5.846;2023-07-29T03:18:42;17.40;93.10
52787;DHT22;38661;53.152;5.846;2023-07-29T03:21:08;17.30;92.80
52787;DHT22;38661;53.152;5.846;2023-07-29T03:23:34;17.30;92.80
52787;DHT22;38661;53.152;5.846;2023-07-29T03:26:02;17.30;92.90
52787;DHT22;38661;53.152;5.846;2023-07-29T03:28:31;17.30;92.70
52787;DHT22;38661;53.152;5.846;2023-07-29T03:30:58;17.30;92.70
52787;DHT22;38661;53.152;5.846;2023-07-29T03:33:25;17.20;92.70
52787;DHT22;38661;53.152;5.846;2023-07-29T03:35:51;17.20;92.80
52787;DHT22;38661;53.152;5.846;2023-07-29T03:38:17;17.20;92.80
52787;DHT22;38661;53.152;5.846;2023-07-29T03:40:43;17.20;92.80
52787;DHT22;38661;53.152;5.846;2023-07-29T03:43:09;17.20;92.90
52787;DHT22;38661;53.152;5.846;2023-07-29T03:45:36;17.20;92.90
52787;DHT22;38661;53.152;5.846;2023-07-29T03:48:02;17.20;92.90
52787;DHT22;38661;53.152;5.846;2023-07-29T03:50:29;17.10;92.80
52787;DHT22;38661;53.152;5.846;2023-07-29T03:52:55;17.10;92.90
52787;DHT22;38661;53.152;5.846;2023-07-29T03:55:21;17.00;93.00
52787;DHT22;38661;53.152;5.846;2023-07-29T03:57:46;17.00;93.20
52787;DHT22;38661;53.152;5.846;2023-07-29T04:00:12;17.00;93.20
52787;DHT22;38661;53.152;5.846;2023-07-29T04:02:38;17.00;93.10
52787;DHT22;38661;53.152;5.846;2023-07-29T04:05:05;17.00;93.10
52787;DHT22;38661;53.152;5.846;2023-07-29T04:07:37;17.00;93.20
52787;DHT22;38661;53.152;5.846;2023-07-29T04:10:03;17.00;93.20
52787;DHT22;38661;53.152;5.846;2023-07-29T04:12:30;17.00;93.30
52787;DHT22;38661;53.152;5.846;2023-07-29T04:15:02;17.00;93.30
52787;DHT22;38661;53.152;5.846;2023-07-29T04:17:28;16.90;93.60
52787;DHT22;38661;53.152;5.846;2023-07-29T04:19:54;16.90;93.60
52787;DHT22;38661;53.152;5.846;2023-07-29T04:22:19;16.90;93.60
52787;DHT22;38661;53.152;5.846;2023-07-29T04:24:46;16.90;93.60
52787;DHT22;38661;53.152;5.846;2023-07-29T04:27:12;16.90;93.50
52787;DHT22;38661;53.152;5.846;2023-07-29T04:29:38;16.90;93.50
52787;DHT22;38661;53.152;5.846;2023-07-29T04:32:04;17.00;93.30
52787;DHT22;38661;53.152;5.846;2023-07-29T04:34:31;17.00;93.40
52787;DHT22;38661;53.152;5.846;2023-07-29T04:36:57;17.00;93.20
52787;DHT22;38661;53.152;5.846;2023-07-29T04:39:22;17.00;93.30
52787;DHT22;38661;53.152;5.846;2023-07-29T04:41:48;17.00;93.40
52787;DHT22;38661;53.152;5.846;2023-07-29T04:44:14;17.00;93.50
52787;DHT22;38661;53.152;5.846;2023-07-29T04:46:40;17.00;93.70
52787;DHT22;38661;53.152;5.846;2023-07-29T04:49:05;17.00;93.60
52787;DHT22;38661;53.152;5.846;2023-07-29T04:51:31;17.00;93.60
52787;DHT22;38661;53.152;5.846;2023-07-29T04:53:59;17.00;93.80
52787;DHT22;38661;53.152;5.846;2023-07-29T04:56:25;17.00;93.70
52787;DHT22;38661;53.152;5.846;2023-07-29T04:58:51;17.10;93.60
52787;DHT22;38661;53.152;5.846;2023-07-29T05:01:17;17.10;93.60
52787;DHT22;38661;53.152;5.846;2023-07-29T05:03:43;17.20;93.50
52787;DHT22;38661;53.152;5.846;2023-07-29T05:06:09;17.20;93.70
52787;DHT22;38661;53.152;5.846;2023-07-29T05:08:36;17.20;93.70
52787;DHT22;38661;53.152;5.846;2023-07-29T05:11:02;17.20;93.70
52787;DHT22;38661;53.152;5.846;2023-07-29T05:13:27;17.20;93.80
52787;DHT22;38661;53.152;5.846;2023-07-29T05:15:53;17.20;93.70
52787;DHT22;38661;53.152;5.846;2023-07-29T05:18:20;17.30;93.60
52787;DHT22;38661;53.152;5.846;2023-07-29T05:20:46;17.30;93.20
52787;DHT22;38661;53.152;5.846;2023-07-29T05:23:12;17.30;93.40
52787;DHT22;38661;53.152;5.846;2023-07-29T05:25:38;17.30;93.30
52787;DHT22;38661;53.152;5.846;2023-07-29T05:28:04;17.30;93.70
52787;DHT22;38661;53.152;5.846;2023-07-29T05:30:30;17.30;93.70
52787;DHT22;38661;53.152;5.846;2023-07-29T05:33:06;17.40;93.70
52787;DHT22;38661;53.152;5.846;2023-07-29T05:35:34;17.40;93.40
52787;DHT22;38661;53.152;5.846;2023-07-29T05:37:59;17.40;93.40
52787;DHT22;38661;53.152;5.846;2023-07-29T05:40:25;17.40;93.30
52787;DHT22;38661;53.152;5.846;2023-07-29T05:42:51;17.40;93.50
52787;DHT22;38661;53.152;5.846;2023-07-29T05:45:16;17.40;93.50
52787;DHT22;38661;53.152;5.846;2023-07-29T05:47:42;17.50;93.60
52787;DHT22;38661;53.152;5.846;2023-07-29T05:50:08;17.40;93.70
52787;DHT22;38661;53.152;5.846;2023-07-29T05:52:34;17.50;93.50
52787;DHT22;38661;53.152;5.846;2023-07-29T05:55:00;17.60;93.40
52787;DHT22;38661;53.152;5.846;2023-07-29T05:57:26;17.50;93.50
52787;DHT22;38661;53.152;5.846;2023-07-29T05:59:52;17.60;93.60
52787;DHT22;38661;53.152;5.846;2023-07-29T06:02:18;17.70;93.40
52787;DHT22;38661;53.152;5.846;2023-07-29T06:04:43;17.80;93.40
52787;DHT22;38661;53.152;5.846;2023-07-29T06:07:09;17.90;93.20
52787;DHT22;38661;53.152;5.846;2023-07-29T06:09:35;18.00;93.00
52787;DHT22;38661;53.152;5.846;2023-07-29T06:12:00;18.00;92.90
52787;DHT22;38661;53.152;5.846;2023-07-29T06:14:26;18.10;92.80
52787;DHT22;38661;53.152;5.846;2023-07-29T06:16:52;18.10;92.60
52787;DHT22;38661;53.152;5.846;2023-07-29T06:19:19;18.20;92.50
52787;DHT22;38661;53.152;5.846;2023-07-29T06:21:45;18.20;92.40
52787;DHT22;38661;53.152;5.846;2023-07-29T06:24:11;18.30;92.20
52787;DHT22;38661;53.152;5.846;2023-07-29T06:26:36;18.50;92.00
52787;DHT22;38661;53.152;5.846;2023-07-29T06:29:02;18.60;91.90
52787;DHT22;38661;53.152;5.846;2023-07-29T06:31:28;18.70;91.70
52787;DHT22;38661;53.152;5.846;2023-07-29T06:33:55;18.70;91.40
52787;DHT22;38661;53.152;5.846;2023-07-29T06:36:20;18.90;91.40
52787;DHT22;38661;53.152;5.846;2023-07-29T06:38:46;18.90;91.10
52787;DHT22;38661;53.152;5.846;2023-07-29T06:41:12;19.00;90.90
52787;DHT22;38661;53.152;5.846;2023-07-29T06:43:37;19.00;90.40
52787;DHT22;38661;53.152;5.846;2023-07-29T06:46:03;19.00;90.50
52787;DHT22;38661;53.152;5.846;2023-07-29T06:48:29;19.00;90.10
52787;DHT22;38661;53.152;5.846;2023-07-29T06:50:54;19.00;89.90
52787;DHT22;38661;53.152;5.846;2023-07-29T06:53:21;18.90;90.10
52787;DHT22;38661;53.152;5.846;2023-07-29T06:55:46;18.90;89.80
52787;DHT22;38661;53.152;5.846;2023-07-29T06:58:12;18.90;89.60
52787;DHT22;38661;53.152;5.846;2023-07-29T07:00:38;18.90;90.10
52787;DHT22;38661;53.152;5.846;2023-07-29T07:03:04;18.80;89.70
52787;DHT22;38661;53.152;5.846;2023-07-29T07:05:30;18.80;90.00
52787;DHT22;38661;53.152;5.846;2023-07-29T07:07:55;18.80;90.10
52787;DHT22;38661;53.152;5.846;2023-07-29T07:10:21;18.80;89.90
52787;DHT22;38661;53.152;5.846;2023-07-29T07:12:47;18.90;89.70
52787;DHT22;38661;53.152;5.846;2023-07-29T07:15:13;19.00;89.70
52787;DHT22;38661;53.152;5.846;2023-07-29T07:17:38;19.10;89.60
52787;DHT22;38661;53.152;5.846;2023-07-29T07:20:05;19.10;89.40
52787;DHT22;38661;53.152;5.846;2023-07-29T07:22:31;19.20;89.00
52787;DHT22;38661;53.152;5.846;2023-07-29T07:24:57;19.40;88.80
52787;DHT22;38661;53.152;5.846;2023-07-29T07:27:22;19.40;88.60
52787;DHT22;38661;53.152;5.846;2023-07-29T07:29:48;19.50;88.60
52787;DHT22;38661;53.152;5.846;2023-07-29T07:32:14;19.60;87.60
52787;DHT22;38661;53.152;5.846;2023-07-29T07:34:40;19.60;87.40
52787;DHT22;38661;53.152;5.846;2023-07-29T07:37:06;19.60;87.40
52787;DHT22;38661;53.152;5.846;2023-07-29T07:39:32;19.60;87.10
52787;DHT22;38661;53.152;5.846;2023-07-29T07:41:58;19.50;87.30
52787;DHT22;38661;53.152;5.846;2023-07-29T07:44:23;19.50;87.60
52787;DHT22;38661;53.152;5.846;2023-07-29T07:46:52;19.50;88.00
52787;DHT22;38661;53.152;5.846;2023-07-29T07:49:19;19.60;87.90
52787;DHT22;38661;53.152;5.846;2023-07-29T07:51:44;19.70;87.50
52787;DHT22;38661;53.152;5.846;2023-07-29T07:54:10;19.60;87.40
52787;DHT22;38661;53.152;5.846;2023-07-29T07:56:36;19.60;86.70
52787;DHT22;38661;53.152;5.846;2023-07-29T07:59:01;19.60;86.40
52787;DHT22;38661;53.152;5.846;2023-07-29T08:01:27;19.60;86.60
52787;DHT22;38661;53.152;5.846;2023-07-29T08:03:53;19.60;86.80
52787;DHT22;38661;53.152;5.846;2023-07-29T08:06:18;19.60;86.90
52787;DHT22;38661;53.152;5.846;2023-07-29T08:08:44;19.60;87.00
52787;DHT22;38661;53.152;5.846;2023-07-29T08:11:10;19.60;87.20
52787;DHT22;38661;53.152;5.846;2023-07-29T08:13:36;19.70;87.10
52787;DHT22;38661;53.152;5.846;2023-07-29T08:16:02;19.70;87.00
52787;DHT22;38661;53.152;5.846;2023-07-29T08:18:27;19.90;86.90
52787;DHT22;38661;53.152;5.846;2023-07-29T08:20:54;19.90;86.10
52787;DHT22;38661;53.152;5.846;2023-07-29T08:23:21;19.80;85.50
52787;DHT22;38661;53.152;5.846;2023-07-29T08:25:54;19.80;86.00
52787;DHT22;38661;53.152;5.846;2023-07-29T08:28:24;19.70;85.90
52787;DHT22;38661;53.152;5.846;2023-07-29T08:30:50;19.80;85.20
52787;DHT22;38661;53.152;5.846;2023-07-29T08:33:16;19.90;85.40
52787;DHT22;38661;53.152;5.846;2023-07-29T08:35:42;20.00;85.70
52787;DHT22;38661;53.152;5.846;2023-07-29T08:38:07;20.00;84.40
52787;DHT22;38661;53.152;5.846;2023-07-29T08:40:34;20.00;84.40
52787;DHT22;38661;53.152;5.846;2023-07-29T08:43:04;19.90;85.00
52787;DHT22;38661;53.152;5.846;2023-07-29T08:45:35;19.90;85.10
52787;DHT22;38661;53.152;5.846;2023-07-29T08:48:08;20.10;85.20
52787;DHT22;38661;53.152;5.846;2023-07-29T08:50:36;20.20;85.40
52787;DHT22;38661;53.152;5.846;2023-07-29T08:53:05;20.30;84.80
52787;DHT22;38661;53.152;5.846;2023-07-29T08:55:32;20.30;84.70
52787;DHT22;38661;53.152;5.846;2023-07-29T08:57:59;20.40;84.60
52787;DHT22;38661;53.152;5.846;2023-07-29T09:00:26;20.40;83.70
52787;DHT22;38661;53.152;5.846;2023-07-29T09:02:52;20.40;83.80
52787;DHT22;38661;53.152;5.846;2023-07-29T09:05:19;20.40;83.20
52787;DHT22;38661;53.152;5.846;2023-07-29T09:07:46;20.40;82.80
52787;DHT22;38661;53.152;5.846;2023-07-29T09:10:13;20.40;82.90
52787;DHT22;38661;53.152;5.846;2023-07-29T09:12:40;20.40;83.30
52787;DHT22;38661;53.152;5.846;2023-07-29T09:15:06;20.50;83.00
52787;DHT22;38661;53.152;5.846;2023-07-29T09:17:35;20.50;82.80
52787;DHT22;38661;53.152;5.846;2023-07-29T09:20:01;20.50;82.90
52787;DHT22;38661;53.152;5.846;2023-07-29T09:22:27;20.50;83.20
52787;DHT22;38661;53.152;5.846;2023-07-29T09:24:53;20.60;83.60
52787;DHT22;38661;53.152;5.846;2023-07-29T09:27:26;20.70;83.30
52787;DHT22;38661;53.152;5.846;2023-07-29T09:29:53;20.70;83.50
52787;DHT22;38661;53.152;5.846;2023-07-29T09:32:24;20.60;84.00
52787;DHT22;38661;53.152;5.846;2023-07-29T09:34:51;20.40;84.70
52787;DHT22;38661;53.152;5.846;2023-07-29T09:37:23;20.40;84.90
52787;DHT22;38661;53.152;5.846;2023-07-29T09:39:49;20.40;85.60
52787;DHT22;38661;53.152;5.846;2023-07-29T09:42:20;20.40;86.20
52787;DHT22;38661;53.152;5.846;2023-07-29T09:44:46;20.30;86.40
52787;DHT22;38661;53.152;5.846;2023-07-29T09:47:21;20.30;86.70
52787;DHT22;38661;53.152;5.846;2023-07-29T09:49:47;20.40;86.60
52787;DHT22;38661;53.152;5.846;2023-07-29T09:52:17;20.40;86.40
52787;DHT22;38661;53.152;5.846;2023-07-29T09:54:44;20.50;85.70
52787;DHT22;38661;53.152;5.846;2023-07-29T09:57:18;20.60;85.70
52787;DHT22;38661;53.152;5.846;2023-07-29T09:59:53;20.70;84.20
52787;DHT22;38661;53.152;5.846;2023-07-29T10:02:20;20.70;82.70
52787;DHT22;38661;53.152;5.846;2023-07-29T10:04:46;20.80;81.90
52787;DHT22;38661;53.152;5.846;2023-07-29T10:07:12;21.00;82.70
52787;DHT22;38661;53.152;5.846;2023-07-29T10:09:39;21.20;81.90
52787;DHT22;38661;53.152;5.846;2023-07-29T10:12:09;21.30;81.00
52787;DHT22;38661;53.152;5.846;2023-07-29T10:14:38;21.50;79.80
52787;DHT22;38661;53.152;5.846;2023-07-29T10:17:05;21.60;79.80
52787;DHT22;38661;53.152;5.846;2023-07-29T10:19:31;21.50;79.50
52787;DHT22;38661;53.152;5.846;2023-07-29T10:21:59;21.50;79.30
52787;DHT22;38661;53.152;5.846;2023-07-29T10:24:32;21.40;79.50
52787;DHT22;38661;53.152;5.846;2023-07-29T10:27:00;21.30;79.80
52787;DHT22;38661;53.152;5.846;2023-07-29T10:29:36;21.20;80.10
52787;DHT22;38661;53.152;5.846;2023-07-29T10:32:04;21.30;79.80
52787;DHT22;38661;53.152;5.846;2023-07-29T10:34:31;21.40;79.40
52787;DHT22;38661;53.152;5.846;2023-07-29T10:36:58;21.40;78.50
52787;DHT22;38661;53.152;5.846;2023-07-29T10:39:25;21.50;77.30
52787;DHT22;38661;53.152;5.846;2023-07-29T10:41:59;21.50;77.40
52787;DHT22;38661;53.152;5.846;2023-07-29T10:44:48;21.60;77.20
52787;DHT22;38661;53.152;5.846;2023-07-29T10:47:18;21.50;78.10
52787;DHT22;38661;53.152;5.846;2023-07-29T10:49:46;21.50;77.60
52787;DHT22;38661;53.152;5.846;2023-07-29T10:52:16;21.30;77.70
52787;DHT22;38661;53.152;5.846;2023-07-29T10:54:46;21.10;78.50
52787;DHT22;38661;53.152;5.846;2023-07-29T10:57:17;20.90;79.90
52787;DHT22;38661;53.152;5.846;2023-07-29T10:59:56;20.90;81.30
52787;DHT22;38661;53.152;5.846;2023-07-29T11:02:31;20.70;82.90
52787;DHT22;38661;53.152;5.846;2023-07-29T11:04:58;20.50;84.10
52787;DHT22;38661;53.152;5.846;2023-07-29T11:07:26;20.70;83.10
52787;DHT22;38661;53.152;5.846;2023-07-29T11:09:54;20.70;82.30
52787;DHT22;38661;53.152;5.846;2023-07-29T11:20:05;19.30;87.50
52787;DHT22;38661;53.152;5.846;2023-07-29T11:22:33;19.10;88.70
52787;DHT22;38661;53.152;5.846;2023-07-29T11:24:59;19.20;88.60
52787;DHT22;38661;53.152;5.846;2023-07-29T11:27:25;19.20;88.40
52787;DHT22;38661;53.152;5.846;2023-07-29T11:29:50;19.20;88.40
52787;DHT22;38661;53.152;5.846;2023-07-29T11:32:16;19.30;87.90
52787;DHT22;38661;53.152;5.846;2023-07-29T11:34:42;19.50;88.20
52787;DHT22;38661;53.152;5.846;2023-07-29T11:37:11;19.60;88.20
52787;DHT22;38661;53.152;5.846;2023-07-29T11:39:44;19.90;87.70
52787;DHT22;38661;53.152;5.846;2023-07-29T11:42:11;20.20;87.00
52787;DHT22;38661;53.152;5.846;2023-07-29T11:44:38;20.30;85.30
52787;DHT22;38661;53.152;5.846;2023-07-29T11:47:10;20.20;84.00
52787;DHT22;38661;53.152;5.846;2023-07-29T11:49:38;20.20;82.70
52787;DHT22;38661;53.152;5.846;2023-07-29T11:52:09;20.00;83.40
52787;DHT22;38661;53.152;5.846;2023-07-29T11:54:36;19.90;82.90
52787;DHT22;38661;53.152;5.846;2023-07-29T11:57:07;19.90;83.10
52787;DHT22;38661;53.152;5.846;2023-07-29T11:59:35;19.90;83.30
52787;DHT22;38661;53.152;5.846;2023-07-29T12:02:02;20.00;83.80
52787;DHT22;38661;53.152;5.846;2023-07-29T12:04:31;20.00;84.90
52787;DHT22;38661;53.152;5.846;2023-07-29T12:06:57;20.20;83.70
52787;DHT22;38661;53.152;5.846;2023-07-29T12:09:23;20.30;83.20
52787;DHT22;38661;53.152;5.846;2023-07-29T12:11:50;20.30;82.80
52787;DHT22;38661;53.152;5.846;2023-07-29T12:14:17;20.30;83.20
52787;DHT22;38661;53.152;5.846;2023-07-29T12:16:43;20.20;83.30
52787;DHT22;38661;53.152;5.846;2023-07-29T12:19:13;20.20;82.60
52787;DHT22;38661;53.152;5.846;2023-07-29T12:21:41;20.30;82.10
52787;DHT22;38661;53.152;5.846;2023-07-29T12:24:07;20.40;82.00
52787;DHT22;38661;53.152;5.846;2023-07-29T12:26:33;20.40;81.30
52787;DHT22;38661;53.152;5.846;2023-07-29T12:28:59;20.50;80.60
52787;DHT22;38661;53.152;5.846;2023-07-29T12:31:31;20.60;79.70
52787;DHT22;38661;53.152;5.846;2023-07-29T12:33:58;20.60;79.40
52787;DHT22;38661;53.152;5.846;2023-07-29T12:36:40;20.60;79.20
52787;DHT22;38661;53.152;5.846;2023-07-29T12:39:05;20.70;78.60
52787;DHT22;38661;53.152;5.846;2023-07-29T12:41:31;20.80;77.40
52787;DHT22;38661;53.152;5.846;2023-07-29T12:43:57;20.80;78.00
52787;DHT22;38661;53.152;5.846;2023-07-29T12:46:29;20.90;77.80
52787;DHT22;38661;53.152;5.846;2023-07-29T12:48:55;21.10;77.30
52787;DHT22;38661;53.152;5.846;2023-07-29T12:51:20;21.20;77.20
52787;DHT22;38661;53.152;5.846;2023-07-29T12:53:46;21.30;76.40
52787;DHT22;38661;53.152;5.846;2023-07-29T12:56:12;21.40;76.60
52787;DHT22;38661;53.152;5.846;2023-07-29T12:58:37;21.50;76.60
52787;DHT22;38661;53.152;5.846;2023-07-29T13:01:03;21.70;76.20
52787;DHT22;38661;53.152;5.846;2023-07-29T13:03:29;21.90;76.00
52787;DHT22;38661;53.152;5.846;2023-07-29T13:05:55;21.90;74.30
52787;DHT22;38661;53.152;5.846;2023-07-29T13:08:20;22.10;73.20
52787;DHT22;38661;53.152;5.846;2023-07-29T13:10:46;22.20;73.70
52787;DHT22;38661;53.152;5.846;2023-07-29T13:13:12;22.40;74.40
52787;DHT22;38661;53.152;5.846;2023-07-29T13:15:37;22.50;73.30
52787;DHT22;38661;53.152;5.846;2023-07-29T13:18:03;22.60;72.00
52787;DHT22;38661;53.152;5.846;2023-07-29T13:20:29;22.70;71.10
52787;DHT22;38661;53.152;5.846;2023-07-29T13:22:55;22.90;71.10
52787;DHT22;38661;53.152;5.846;2023-07-29T13:25:21;22.70;70.20
52787;DHT22;38661;53.152;5.846;2023-07-29T13:27:47;22.50;71.60
52787;DHT22;38661;53.152;5.846;2023-07-29T13:30:12;22.50;69.60
52787;DHT22;38661;53.152;5.846;2023-07-29T13:32:38;22.50;69.20
52787;DHT22;38661;53.152;5.846;2023-07-29T13:35:04;22.50;68.60
52787;DHT22;38661;53.152;5.846;2023-07-29T13:37:30;22.90;68.30
52787;DHT22;38661;53.152;5.846;2023-07-29T13:39:55;23.10;66.20
52787;DHT22;38661;53.152;5.846;2023-07-29T13:42:21;23.00;65.80
52787;DHT22;38661;53.152;5.846;2023-07-29T13:44:47;23.00;67.00
52787;DHT22;38661;53.152;5.846;2023-07-29T13:47:12;23.10;66.20
52787;DHT22;38661;53.152;5.846;2023-07-29T13:49:38;23.20;65.10
52787;DHT22;38661;53.152;5.846;2023-07-29T13:52:04;23.30;65.00
52787;DHT22;38661;53.152;5.846;2023-07-29T13:54:29;23.50;65.30
52787;DHT22;38661;53.152;5.846;2023-07-29T13:56:55;23.40;64.30
52787;DHT22;38661;53.152;5.846;2023-07-29T13:59:21;23.70;64.90
52787;DHT22;38661;53.152;5.846;2023-07-29T14:01:47;23.70;64.20
52787;DHT22;38661;53.152;5.846;2023-07-29T14:04:12;23.60;65.40
52787;DHT22;38661;53.152;5.846;2023-07-29T14:06:38;23.70;63.50
52787;DHT22;38661;53.152;5.846;2023-07-29T14:09:04;23.90;64.10
52787;DHT22;38661;53.152;5.846;2023-07-29T14:11:29;23.90;64.30
52787;DHT22;38661;53.152;5.846;2023-07-29T14:13:55;24.10;63.90
52787;DHT22;38661;53.152;5.846;2023-07-29T14:16:21;23.70;62.80
52787;DHT22;38661;53.152;5.846;2023-07-29T14:18:46;23.70;64.00
52787;DHT22;38661;53.152;5.846;2023-07-29T14:21:12;23.90;64.70
52787;DHT22;38661;53.152;5.846;2023-07-29T14:23:38;23.90;64.00
52787;DHT22;38661;53.152;5.846;2023-07-29T14:26:03;24.00;63.20
52787;DHT22;38661;53.152;5.846;2023-07-29T14:28:29;24.10;63.00
52787;DHT22;38661;53.152;5.846;2023-07-29T14:30:56;24.10;63.10
52787;DHT22;38661;53.152;5.846;2023-07-29T14:33:21;24.00;64.10
52787;DHT22;38661;53.152;5.846;2023-07-29T14:35:47;24.10;64.00
52787;DHT22;38661;53.152;5.846;2023-07-29T14:38:13;24.00;64.30
52787;DHT22;38661;53.152;5.846;2023-07-29T14:40:39;23.90;65.30
52787;DHT22;38661;53.152;5.846;2023-07-29T14:43:04;23.90;65.40
52787;DHT22;38661;53.152;5.846;2023-07-29T14:45:30;24.00;65.90
52787;DHT22;38661;53.152;5.846;2023-07-29T14:47:56;23.90;63.40
52787;DHT22;38661;53.152;5.846;2023-07-29T14:50:22;23.80;63.50
52787;DHT22;38661;53.152;5.846;2023-07-29T14:52:47;23.70;65.10
52787;DHT22;38661;53.152;5.846;2023-07-29T14:55:13;23.90;65.70
52787;DHT22;38661;53.152;5.846;2023-07-29T14:57:39;23.90;65.70
52787;DHT22;38661;53.152;5.846;2023-07-29T15:00:07;23.80;64.80
52787;DHT22;38661;53.152;5.846;2023-07-29T15:02:33;23.60;65.10
52787;DHT22;38661;53.152;5.846;2023-07-29T15:04:59;23.90;65.30
52787;DHT22;38661;53.152;5.846;2023-07-29T15:07:24;24.00;64.20
52787;DHT22;38661;53.152;5.846;2023-07-29T15:09:50;24.10;63.40
52787;DHT22;38661;53.152;5.846;2023-07-29T15:12:16;24.20;64.00
52787;DHT22;38661;53.152;5.846;2023-07-29T15:14:41;24.10;64.60
52787;DHT22;38661;53.152;5.846;2023-07-29T15:17:07;24.20;63.00
52787;DHT22;38661;53.152;5.846;2023-07-29T15:19:33;24.30;63.30
52787;DHT22;38661;53.152;5.846;2023-07-29T15:21:59;24.30;63.30
52787;DHT22;38661;53.152;5.846;2023-07-29T15:24:24;24.30;62.80
52787;DHT22;38661;53.152;5.846;2023-07-29T15:26:50;24.40;62.50
52787;DHT22;38661;53.152;5.846;2023-07-29T15:29:16;24.40;61.20
52787;DHT22;38661;53.152;5.846;2023-07-29T15:31:41;24.40;61.70
52787;DHT22;38661;53.152;5.846;2023-07-29T15:34:07;24.20;62.10
52787;DHT22;38661;53.152;5.846;2023-07-29T15:36:33;23.80;62.00
52787;DHT22;38661;53.152;5.846;2023-07-29T15:38:59;23.50;62.40